sensor_id;sensor_type;location;lat;lon;timestamp;P1;durP1;ratioP1;P2;durP2;ratioP2
70414;SDS011;57837;52.064;113.478;2023-01-31T00:02:57;18.67;;;6.03;;
70414;SDS011;57837;52.064;113.478;2023-01-31T00:09:19;13.43;;;4.73;;
70414;SDS011;57837;52.064;113.478;2023-01-31T00:12:22;21.40;;;7.65;;
70414;SDS011;57837;52.064;113.478;2023-01-31T00:15:25;13.32;;;5.55;;
70414;SDS011;57837;52.064;113.478;2023-01-31T00:18:29;22.00;;;6.43;;
70414;SDS011;57837;52.064;113.478;2023-01-31T00:21:33;19.23;;;6.72;;
70414;SDS011;57837;52.064;113.478;2023-01-31T00:24:37;12.68;;;4.13;;
70414;SDS011;57837;52.064;113.478;2023-01-31T00:27:40;9.20;;;2.95;;
70414;SDS011;57837;52.064;113.478;2023-01-31T00:30:45;25.30;;;7.82;;
70414;SDS011;57837;52.064;113.478;2023-01-31T00:33:50;19.98;;;7.03;;
70414;SDS011;57837;52.064;113.478;2023-01-31T00:36:55;17.73;;;5.10;;
70414;SDS011;57837;52.064;113.478;2023-01-31T00:39:59;21.97;;;5.60;;
70414;SDS011;57837;52.064;113.478;2023-01-31T00:43:03;12.88;;;4.90;;
70414;SDS011;57837;52.064;113.478;2023-01-31T00:46:06;15.43;;;6.55;;
70414;SDS011;57837;52.064;113.478;2023-01-31T00:49:10;12.90;;;5.03;;
70414;SDS011;57837;52.064;113.478;2023-01-31T00:52:14;12.73;;;4.20;;
70414;SDS011;57837;52.064;113.478;2023-01-31T00:55:17;10.75;;;3.72;;
70414;SDS011;57837;52.064;113.478;2023-01-31T00:58:22;10.80;;;4.82;;
70414;SDS011;57837;52.064;113.478;2023-01-31T01:01:28;8.63;;;3.95;;
70414;SDS011;57837;52.064;113.478;2023-01-31T01:04:32;7.65;;;3.17;;
70414;SDS011;57837;52.064;113.478;2023-01-31T01:07:36;12.73;;;3.30;;
70414;SDS011;57837;52.064;113.478;2023-01-31T01:10:38;10.33;;;4.03;;
70414;SDS011;57837;52.064;113.478;2023-01-31T01:13:43;10.05;;;3.92;;
70414;SDS011;57837;52.064;113.478;2023-01-31T01:16:46;16.15;;;4.38;;
70414;SDS011;57837;52.064;113.478;2023-01-31T01:19:51;12.07;;;4.50;;
70414;SDS011;57837;52.064;113.478;2023-01-31T01:22:54;14.52;;;4.90;;
70414;SDS011;57837;52.064;113.478;2023-01-31T01:25:58;15.32;;;4.10;;
70414;SDS011;57837;52.064;113.478;2023-01-31T01:29:02;15.02;;;6.07;;
70414;SDS011;57837;52.064;113.478;2023-01-31T01:32:06;20.52;;;7.18;;
70414;SDS011;57837;52.064;113.478;2023-01-31T01:35:10;19.02;;;7.40;;
70414;SDS011;57837;52.064;113.478;2023-01-31T01:38:14;21.15;;;6.55;;
70414;SDS011;57837;52.064;113.478;2023-01-31T01:41:18;10.30;;;4.43;;
70414;SDS011;57837;52.064;113.478;2023-01-31T01:44:44;14.68;;;6.40;;
70414;SDS011;57837;52.064;113.478;2023-01-31T01:48:02;10.43;;;4.63;;
70414;SDS011;57837;52.064;113.478;2023-01-31T01:51:10;14.53;;;6.27;;
70414;SDS011;57837;52.064;113.478;2023-01-31T01:54:20;12.50;;;4.82;;
70414;SDS011;57837;52.064;113.478;2023-01-31T01:57:53;8.23;;;3.78;;
70414;SDS011;57837;52.064;113.478;2023-01-31T02:01:03;5.63;;;2.30;;
70414;SDS011;57837;52.064;113.478;2023-01-31T02:04:09;9.30;;;4.55;;
70414;SDS011;57837;52.064;113.478;2023-01-31T02:07:17;13.50;;;4.65;;
70414;SDS011;57837;52.064;113.478;2023-01-31T02:10:25;12.85;;;5.07;;
70414;SDS011;57837;52.064;113.478;2023-01-31T02:13:33;10.67;;;4.43;;
70414;SDS011;57837;52.064;113.478;2023-01-31T02:16:39;13.30;;;5.47;;
70414;SDS011;57837;52.064;113.478;2023-01-31T02:30:13;18.25;;;5.57;;
70414;SDS011;57837;52.064;113.478;2023-01-31T02:33:24;14.15;;;5.00;;
70414;SDS011;57837;52.064;113.478;2023-01-31T02:36:41;11.70;;;4.55;;
70414;SDS011;57837;52.064;113.478;2023-01-31T02:40:05;19.05;;;6.53;;
70414;SDS011;57837;52.064;113.478;2023-01-31T02:46:57;21.53;;;7.50;;
70414;SDS011;57837;52.064;113.478;2023-01-31T02:50:04;12.00;;;4.53;;
70414;SDS011;57837;52.064;113.478;2023-01-31T02:53:30;9.52;;;3.75;;
70414;SDS011;57837;52.064;113.478;2023-01-31T02:56:36;19.17;;;3.93;;
70414;SDS011;57837;52.064;113.478;2023-01-31T02:59:43;8.25;;;3.42;;
70414;SDS011;57837;52.064;113.478;2023-01-31T03:02:48;10.10;;;4.65;;
70414;SDS011;57837;52.064;113.478;2023-01-31T03:06:11;8.80;;;3.10;;
70414;SDS011;57837;52.064;113.478;2023-01-31T03:12:47;5.25;;;1.77;;
70414;SDS011;57837;52.064;113.478;2023-01-31T03:20:08;4.05;;;1.98;;
70414;SDS011;57837;52.064;113.478;2023-01-31T03:23:31;9.88;;;3.97;;
70414;SDS011;57837;52.064;113.478;2023-01-31T03:26:39;5.97;;;2.83;;
70414;SDS011;57837;52.064;113.478;2023-01-31T03:29:44;11.88;;;4.13;;
70414;SDS011;57837;52.064;113.478;2023-01-31T03:32:53;10.37;;;4.20;;
70414;SDS011;57837;52.064;113.478;2023-01-31T03:36:05;13.45;;;5.47;;
70414;SDS011;57837;52.064;113.478;2023-01-31T03:43:06;7.68;;;3.22;;
70414;SDS011;57837;52.064;113.478;2023-01-31T03:46:26;5.27;;;2.13;;
70414;SDS011;57837;52.064;113.478;2023-01-31T03:49:37;11.60;;;3.60;;
70414;SDS011;57837;52.064;113.478;2023-01-31T03:52:46;9.18;;;3.67;;
70414;SDS011;57837;52.064;113.478;2023-01-31T03:56:16;7.87;;;3.17;;
70414;SDS011;57837;52.064;113.478;2023-01-31T03:59:23;12.02;;;4.10;;
70414;SDS011;57837;52.064;113.478;2023-01-31T04:02:34;13.65;;;5.95;;
70414;SDS011;57837;52.064;113.478;2023-01-31T04:05:39;11.55;;;3.67;;
70414;SDS011;57837;52.064;113.478;2023-01-31T04:08:44;11.68;;;2.75;;
70414;SDS011;57837;52.064;113.478;2023-01-31T04:11:49;11.05;;;4.03;;
70414;SDS011;57837;52.064;113.478;2023-01-31T04:14:52;14.13;;;4.53;;
70414;SDS011;57837;52.064;113.478;2023-01-31T04:17:55;7.00;;;3.03;;
70414;SDS011;57837;52.064;113.478;2023-01-31T04:20:58;6.88;;;3.03;;
70414;SDS011;57837;52.064;113.478;2023-01-31T04:24:02;8.65;;;3.50;;
70414;SDS011;57837;52.064;113.478;2023-01-31T04:27:05;6.73;;;2.90;;
70414;SDS011;57837;52.064;113.478;2023-01-31T04:30:08;4.97;;;1.77;;
70414;SDS011;57837;52.064;113.478;2023-01-31T04:33:13;8.23;;;2.17;;
70414;SDS011;57837;52.064;113.478;2023-01-31T04:36:16;3.60;;;1.77;;
70414;SDS011;57837;52.064;113.478;2023-01-31T04:39:19;9.75;;;4.00;;
70414;SDS011;57837;52.064;113.478;2023-01-31T04:42:22;8.02;;;2.75;;
70414;SDS011;57837;52.064;113.478;2023-01-31T04:45:25;6.82;;;1.85;;
70414;SDS011;57837;52.064;113.478;2023-01-31T04:48:28;7.50;;;3.07;;
70414;SDS011;57837;52.064;113.478;2023-01-31T04:51:32;10.25;;;3.25;;
70414;SDS011;57837;52.064;113.478;2023-01-31T04:54:36;8.52;;;2.95;;
70414;SDS011;57837;52.064;113.478;2023-01-31T04:57:39;8.30;;;2.90;;
70414;SDS011;57837;52.064;113.478;2023-01-31T05:00:42;7.32;;;2.10;;
70414;SDS011;57837;52.064;113.478;2023-01-31T05:03:47;6.82;;;2.10;;
70414;SDS011;57837;52.064;113.478;2023-01-31T05:06:51;5.05;;;2.50;;
70414;SDS011;57837;52.064;113.478;2023-01-31T05:09:55;8.63;;;2.42;;
70414;SDS011;57837;52.064;113.478;2023-01-31T05:12:57;5.47;;;2.20;;
70414;SDS011;57837;52.064;113.478;2023-01-31T05:16:01;7.28;;;2.42;;
70414;SDS011;57837;52.064;113.478;2023-01-31T05:19:05;8.07;;;1.53;;
70414;SDS011;57837;52.064;113.478;2023-01-31T05:22:08;10.00;;;2.97;;
70414;SDS011;57837;52.064;113.478;2023-01-31T05:25:12;6.13;;;2.33;;
70414;SDS011;57837;52.064;113.478;2023-01-31T05:28:16;4.30;;;1.93;;
70414;SDS011;57837;52.064;113.478;2023-01-31T05:31:20;14.43;;;3.00;;
70414;SDS011;57837;52.064;113.478;2023-01-31T05:34:24;4.53;;;1.35;;
70414;SDS011;57837;52.064;113.478;2023-01-31T05:37:30;7.03;;;2.08;;
70414;SDS011;57837;52.064;113.478;2023-01-31T05:40:34;5.43;;;2.28;;
70414;SDS011;57837;52.064;113.478;2023-01-31T05:43:38;6.65;;;3.13;;
70414;SDS011;57837;52.064;113.478;2023-01-31T05:46:42;8.30;;;2.83;;
70414;SDS011;57837;52.064;113.478;2023-01-31T05:49:45;6.47;;;2.10;;
70414;SDS011;57837;52.064;113.478;2023-01-31T05:52:50;8.98;;;3.20;;
70414;SDS011;57837;52.064;113.478;2023-01-31T05:56:02;13.55;;;4.18;;
70414;SDS011;57837;52.064;113.478;2023-01-31T05:59:05;9.30;;;3.37;;
70414;SDS011;57837;52.064;113.478;2023-01-31T06:02:08;21.45;;;7.80;;
70414;SDS011;57837;52.064;113.478;2023-01-31T06:05:15;17.52;;;3.78;;
70414;SDS011;57837;52.064;113.478;2023-01-31T06:08:18;3.70;;;2.10;;
70414;SDS011;57837;52.064;113.478;2023-01-31T06:11:21;8.38;;;2.22;;
70414;SDS011;57837;52.064;113.478;2023-01-31T06:14:26;8.85;;;2.10;;
70414;SDS011;57837;52.064;113.478;2023-01-31T06:17:29;3.33;;;1.40;;
70414;SDS011;57837;52.064;113.478;2023-01-31T06:20:35;12.67;;;3.90;;
70414;SDS011;57837;52.064;113.478;2023-01-31T06:23:40;4.63;;;2.28;;
70414;SDS011;57837;52.064;113.478;2023-01-31T06:26:48;7.72;;;3.00;;
70414;SDS011;57837;52.064;113.478;2023-01-31T06:29:51;12.90;;;3.67;;
70414;SDS011;57837;52.064;113.478;2023-01-31T06:32:55;7.43;;;2.92;;
70414;SDS011;57837;52.064;113.478;2023-01-31T06:36:01;16.35;;;4.60;;
70414;SDS011;57837;52.064;113.478;2023-01-31T06:39:06;7.18;;;3.13;;
70414;SDS011;57837;52.064;113.478;2023-01-31T06:42:09;11.23;;;3.65;;
70414;SDS011;57837;52.064;113.478;2023-01-31T06:45:13;8.38;;;2.55;;
70414;SDS011;57837;52.064;113.478;2023-01-31T06:48:17;16.70;;;3.42;;
70414;SDS011;57837;52.064;113.478;2023-01-31T06:51:22;16.23;;;2.80;;
70414;SDS011;57837;52.064;113.478;2023-01-31T06:54:26;6.47;;;2.35;;
70414;SDS011;57837;52.064;113.478;2023-01-31T06:57:29;10.45;;;2.67;;
70414;SDS011;57837;52.064;113.478;2023-01-31T07:00:33;2.73;;;0.97;;
70414;SDS011;57837;52.064;113.478;2023-01-31T07:03:37;6.78;;;1.10;;
70414;SDS011;57837;52.064;113.478;2023-01-31T07:06:40;3.58;;;0.90;;
70414;SDS011;57837;52.064;113.478;2023-01-31T07:09:43;6.63;;;1.85;;
70414;SDS011;57837;52.064;113.478;2023-01-31T07:12:46;7.03;;;2.03;;
70414;SDS011;57837;52.064;113.478;2023-01-31T07:15:49;6.68;;;1.58;;
70414;SDS011;57837;52.064;113.478;2023-01-31T07:18:52;4.40;;;2.13;;
70414;SDS011;57837;52.064;113.478;2023-01-31T07:21:57;7.57;;;1.73;;
70414;SDS011;57837;52.064;113.478;2023-01-31T07:25:01;8.00;;;1.75;;
70414;SDS011;57837;52.064;113.478;2023-01-31T07:28:05;8.30;;;1.45;;
70414;SDS011;57837;52.064;113.478;2023-01-31T07:31:10;6.50;;;2.53;;
70414;SDS011;57837;52.064;113.478;2023-01-31T07:34:14;10.52;;;3.95;;
70414;SDS011;57837;52.064;113.478;2023-01-31T07:37:17;3.33;;;1.50;;
70414;SDS011;57837;52.064;113.478;2023-01-31T07:40:21;11.57;;;5.63;;
70414;SDS011;57837;52.064;113.478;2023-01-31T07:43:25;7.30;;;3.28;;
70414;SDS011;57837;52.064;113.478;2023-01-31T07:46:29;8.52;;;3.20;;
70414;SDS011;57837;52.064;113.478;2023-01-31T07:49:33;23.13;;;6.60;;
70414;SDS011;57837;52.064;113.478;2023-01-31T07:52:37;8.60;;;3.23;;
70414;SDS011;57837;52.064;113.478;2023-01-31T07:55:40;18.73;;;4.82;;
70414;SDS011;57837;52.064;113.478;2023-01-31T07:58:43;7.53;;;2.88;;
70414;SDS011;57837;52.064;113.478;2023-01-31T08:01:48;9.40;;;2.70;;
70414;SDS011;57837;52.064;113.478;2023-01-31T08:05:11;10.57;;;3.22;;
70414;SDS011;57837;52.064;113.478;2023-01-31T08:08:16;17.90;;;5.72;;
70414;SDS011;57837;52.064;113.478;2023-01-31T08:11:19;20.33;;;4.90;;
70414;SDS011;57837;52.064;113.478;2023-01-31T08:14:22;12.63;;;4.45;;
70414;SDS011;57837;52.064;113.478;2023-01-31T08:17:28;15.25;;;3.42;;
70414;SDS011;57837;52.064;113.478;2023-01-31T08:20:32;18.52;;;4.60;;
70414;SDS011;57837;52.064;113.478;2023-01-31T08:23:36;10.20;;;3.90;;
70414;SDS011;57837;52.064;113.478;2023-01-31T08:26:42;14.40;;;3.83;;
70414;SDS011;57837;52.064;113.478;2023-01-31T08:29:46;16.65;;;2.60;;
70414;SDS011;57837;52.064;113.478;2023-01-31T08:32:50;8.03;;;2.57;;
70414;SDS011;57837;52.064;113.478;2023-01-31T08:35:54;7.07;;;2.20;;
70414;SDS011;57837;52.064;113.478;2023-01-31T08:38:57;5.93;;;2.22;;
70414;SDS011;57837;52.064;113.478;2023-01-31T08:42:01;5.53;;;2.40;;
70414;SDS011;57837;52.064;113.478;2023-01-31T08:45:04;9.93;;;3.65;;
70414;SDS011;57837;52.064;113.478;2023-01-31T08:48:08;18.90;;;5.97;;
70414;SDS011;57837;52.064;113.478;2023-01-31T08:51:12;10.82;;;3.92;;
70414;SDS011;57837;52.064;113.478;2023-01-31T08:54:15;17.00;;;5.70;;
70414;SDS011;57837;52.064;113.478;2023-01-31T08:57:19;6.65;;;3.17;;
70414;SDS011;57837;52.064;113.478;2023-01-31T09:00:22;11.50;;;3.03;;
70414;SDS011;57837;52.064;113.478;2023-01-31T09:03:26;12.50;;;4.50;;
70414;SDS011;57837;52.064;113.478;2023-01-31T09:06:30;15.00;;;4.72;;
70414;SDS011;57837;52.064;113.478;2023-01-31T09:09:34;12.25;;;3.33;;
70414;SDS011;57837;52.064;113.478;2023-01-31T09:12:37;17.95;;;7.07;;
70414;SDS011;57837;52.064;113.478;2023-01-31T09:15:41;29.30;;;7.97;;
70414;SDS011;57837;52.064;113.478;2023-01-31T09:18:45;30.20;;;9.40;;
70414;SDS011;57837;52.064;113.478;2023-01-31T09:21:51;30.23;;;8.40;;
70414;SDS011;57837;52.064;113.478;2023-01-31T09:24:54;31.00;;;11.00;;
70414;SDS011;57837;52.064;113.478;2023-01-31T09:27:58;9.93;;;3.63;;
70414;SDS011;57837;52.064;113.478;2023-01-31T09:31:02;8.45;;;3.67;;
70414;SDS011;57837;52.064;113.478;2023-01-31T09:34:07;10.00;;;3.40;;
70414;SDS011;57837;52.064;113.478;2023-01-31T09:37:11;6.95;;;2.45;;
70414;SDS011;57837;52.064;113.478;2023-01-31T09:40:16;8.95;;;3.30;;
70414;SDS011;57837;52.064;113.478;2023-01-31T09:43:32;8.45;;;3.28;;
70414;SDS011;57837;52.064;113.478;2023-01-31T09:46:40;10.43;;;4.32;;
70414;SDS011;57837;52.064;113.478;2023-01-31T09:49:49;11.25;;;4.35;;
70414;SDS011;57837;52.064;113.478;2023-01-31T09:52:56;9.82;;;3.85;;
70414;SDS011;57837;52.064;113.478;2023-01-31T09:59:38;16.42;;;6.90;;
70414;SDS011;57837;52.064;113.478;2023-01-31T10:02:54;22.13;;;8.25;;
70414;SDS011;57837;52.064;113.478;2023-01-31T10:09:41;20.23;;;6.85;;
70414;SDS011;57837;52.064;113.478;2023-01-31T10:13:00;17.83;;;6.57;;
70414;SDS011;57837;52.064;113.478;2023-01-31T10:19:27;25.80;;;8.18;;
70414;SDS011;57837;52.064;113.478;2023-01-31T10:22:44;25.20;;;9.48;;
70414;SDS011;57837;52.064;113.478;2023-01-31T10:29:46;62.33;;;20.37;;
70414;SDS011;57837;52.064;113.478;2023-01-31T10:33:02;58.80;;;18.33;;
70414;SDS011;57837;52.064;113.478;2023-01-31T10:36:42;43.38;;;13.50;;
70414;SDS011;57837;52.064;113.478;2023-01-31T10:40:03;32.83;;;11.13;;
70414;SDS011;57837;52.064;113.478;2023-01-31T10:46:31;35.80;;;11.38;;
70414;SDS011;57837;52.064;113.478;2023-01-31T10:49:35;35.03;;;13.40;;
70414;SDS011;57837;52.064;113.478;2023-01-31T10:59:39;31.33;;;11.35;;
70414;SDS011;57837;52.064;113.478;2023-01-31T11:02:46;20.83;;;8.23;;
